createdAt,value
2023-04-18T00:00:46.262Z,31.75
2023-04-18T00:03:16.192Z,31.88
2023-04-18T00:05:48.192Z,32.00
2023-04-18T00:08:15.680Z,32.25
2023-04-18T00:10:42.691Z,31.40
2023-04-18T00:13:10.237Z,32.25
2023-04-18T00:15:37.260Z,31.98
2023-04-18T00:18:06.215Z,32.30
2023-04-18T00:20:33.480Z,32.72
2023-04-18T00:23:00.823Z,32.63
2023-04-18T00:25:27.920Z,32.17
2023-04-18T00:27:54.903Z,32.75
2023-04-18T00:30:21.889Z,32.47
2023-04-18T00:32:48.926Z,31.95
2023-04-18T00:35:16.044Z,32.55
2023-04-18T00:37:43.379Z,32.38
2023-04-18T00:40:10.960Z,32.85
2023-04-18T00:42:37.991Z,31.92
2023-04-18T00:45:05.509Z,33.45
2023-04-18T00:47:32.552Z,32.28
2023-04-18T00:49:59.735Z,33.03
2023-04-18T00:52:27.537Z,32.20
2023-04-18T00:54:55.557Z,32.15
2023-04-18T00:57:22.792Z,32.88
2023-04-18T00:59:50.314Z,33.58
2023-04-18T01:02:17.614Z,32.42
2023-04-18T01:04:44.730Z,32.85
2023-04-18T01:07:12.402Z,32.50
2023-04-18T01:09:40.511Z,32.72
2023-04-18T01:12:07.557Z,32.75
2023-04-18T01:14:34.511Z,33.80
2023-04-18T01:17:01.684Z,32.45
2023-04-18T01:19:28.713Z,33.17
2023-04-18T01:21:55.657Z,33.30
2023-04-18T01:24:25.922Z,33.50
2023-04-18T01:26:52.909Z,33.78
2023-04-18T01:29:19.897Z,33.45
2023-04-18T01:31:46.857Z,33.40
2023-04-18T01:34:14.802Z,33.22
2023-04-18T01:36:41.980Z,33.22
2023-04-18T01:39:09.504Z,33.05
2023-04-18T01:41:36.697Z,34.17
2023-04-18T01:44:04.284Z,33.78
2023-04-18T01:46:31.742Z,32.70
2023-04-18T01:48:59.583Z,32.90
2023-04-18T01:51:28.538Z,33.88
2023-04-18T01:53:55.545Z,33.90
2023-04-18T01:56:22.676Z,33.88
2023-04-18T01:58:49.685Z,34.20
2023-04-18T02:01:16.737Z,33.20
2023-04-18T02:03:43.968Z,34.88
2023-04-18T02:06:11.018Z,33.53
2023-04-18T02:08:38.076Z,34.08
2023-04-18T02:11:05.695Z,33.72
2023-04-18T02:13:32.987Z,35.10
2023-04-18T02:16:00.055Z,34.08
2023-04-18T02:18:27.369Z,33.97
2023-04-18T02:20:54.445Z,33.97
2023-04-18T02:23:21.398Z,33.45
2023-04-18T02:25:48.446Z,34.08
2023-04-18T02:28:15.409Z,34.80
2023-04-18T02:30:42.412Z,35.13
2023-04-18T02:33:09.350Z,34.72
2023-04-18T02:35:38.575Z,35.05
2023-04-18T02:38:05.878Z,35.40
2023-04-18T02:40:32.991Z,34.75
2023-04-18T02:43:00.067Z,34.95
2023-04-18T02:45:27.028Z,34.83
2023-04-18T02:47:56.235Z,36.45
2023-04-18T02:50:24.254Z,35.65
2023-04-18T02:52:51.268Z,36.53
2023-04-18T02:55:18.474Z,35.55
2023-04-18T02:57:45.509Z,35.42
2023-04-18T03:00:13.703Z,35.60
2023-04-18T03:02:41.032Z,35.60
2023-04-18T03:05:08.385Z,34.60
2023-04-18T03:07:35.506Z,33.97
2023-04-18T03:10:02.452Z,34.47
2023-04-18T03:12:29.406Z,34.83
2023-04-18T03:14:56.384Z,34.25
2023-04-18T03:17:23.587Z,34.35
2023-04-18T03:19:50.716Z,35.28
2023-04-18T03:22:17.911Z,34.15
2023-04-18T03:24:44.951Z,35.03
2023-04-18T03:27:13.434Z,35.25
2023-04-18T03:29:40.420Z,35.00
2023-04-18T03:32:07.429Z,35.05
2023-04-18T03:34:34.426Z,35.08
2023-04-18T03:37:01.569Z,35.45
2023-04-18T03:39:28.506Z,35.85
2023-04-18T03:41:55.734Z,34.03
2023-04-18T03:44:22.691Z,35.33
2023-04-18T03:46:50.226Z,35.38
2023-04-18T03:49:17.165Z,35.30
2023-04-18T03:51:47.986Z,34.70
2023-04-18T03:54:18.906Z,35.30
2023-04-18T03:56:46.235Z,34.80
2023-04-18T03:59:13.170Z,35.40
2023-04-18T04:01:40.133Z,35.40
2023-04-18T04:04:09.356Z,36.30
2023-04-18T04:06:36.579Z,35.13
2023-04-18T04:09:03.739Z,36.00
2023-04-18T04:11:30.695Z,35.30
2023-04-18T04:13:57.671Z,35.38
2023-04-18T04:16:24.911Z,35.72
2023-04-18T04:18:51.927Z,35.53
2023-04-18T04:21:20.652Z,34.85
2023-04-18T04:23:48.280Z,36.08
2023-04-18T04:26:15.879Z,35.47
2023-04-18T04:28:43.596Z,36.08
2023-04-18T04:31:10.617Z,48.03
2023-04-18T04:33:39.238Z,50.53
2023-04-18T04:36:07.863Z,45.28
2023-04-18T04:38:38.368Z,44.35
2023-04-18T04:41:09.434Z,44.03
2023-04-18T04:43:36.651Z,43.53
2023-04-18T04:46:04.652Z,44.08
2023-04-18T04:48:31.665Z,43.25
2023-04-18T04:51:00.160Z,44.67
2023-04-18T04:53:30.484Z,43.42
2023-04-18T04:55:58.616Z,43.90
2023-04-18T04:58:25.776Z,42.42
2023-04-18T05:00:53.805Z,43.30
2023-04-18T05:03:21.279Z,42.53
2023-04-18T05:05:48.723Z,43.13
2023-04-18T05:08:15.855Z,41.67
2023-04-18T05:10:43.446Z,42.42
2023-04-18T05:13:10.547Z,41.53
2023-04-18T05:15:37.660Z,41.80
2023-04-18T05:18:04.875Z,42.97
2023-04-18T05:20:32.013Z,41.50
2023-04-18T05:22:59.020Z,41.97
2023-04-18T05:25:26.132Z,41.95
2023-04-18T05:27:53.141Z,41.15
2023-04-18T05:30:20.180Z,40.90
2023-04-18T05:32:47.199Z,42.22
2023-04-18T05:35:14.617Z,42.28
2023-04-18T05:37:41.682Z,42.70
2023-04-18T05:40:09.341Z,42.33
2023-04-18T05:42:36.358Z,43.08
2023-04-18T05:45:03.426Z,43.13
2023-04-18T05:47:30.518Z,42.75
2023-04-18T05:49:57.561Z,42.70
2023-04-18T05:52:26.192Z,42.75
2023-04-18T05:54:53.615Z,43.85
2023-04-18T05:57:20.677Z,42.15
2023-04-18T05:59:47.659Z,41.88
2023-04-18T06:02:14.718Z,42.60
2023-04-18T06:04:42.857Z,41.85
2023-04-18T06:07:10.545Z,42.33
2023-04-18T06:09:37.527Z,42.92
2023-04-18T06:12:04.780Z,43.08
2023-04-18T06:14:32.061Z,43.10
2023-04-18T06:16:59.062Z,42.95
2023-04-18T06:19:26.215Z,43.08
2023-04-18T06:21:53.682Z,41.70
2023-04-18T06:24:21.008Z,42.17
2023-04-18T06:26:47.970Z,41.05
2023-04-18T06:29:15.122Z,39.67
2023-04-18T06:31:42.429Z,38.13
2023-04-18T06:34:09.791Z,40.03
2023-04-18T06:36:36.883Z,38.33
2023-04-18T06:39:04.067Z,39.70
2023-04-18T06:41:31.766Z,37.75
2023-04-18T06:44:04.068Z,38.20
2023-04-18T06:46:32.042Z,38.05
2023-04-18T06:48:59.331Z,36.97
2023-04-18T06:51:27.416Z,35.70
2023-04-18T06:53:54.576Z,35.90
2023-04-18T06:56:21.946Z,36.63
2023-04-18T06:58:49.924Z,34.72
2023-04-18T07:01:16.964Z,35.05
2023-04-18T07:03:44.041Z,33.15
2023-04-18T07:06:11.217Z,34.38
2023-04-18T07:08:38.685Z,32.58
2023-04-18T07:11:06.858Z,33.30
2023-04-18T07:13:33.932Z,34.28
2023-04-18T07:16:01.695Z,34.78
2023-04-18T07:18:37.539Z,32.92
2023-04-18T07:21:43.296Z,33.63
2023-04-18T07:23:54.400Z,33.03
2023-04-18T07:26:21.650Z,34.40
2023-04-18T07:28:49.626Z,33.95
2023-04-18T07:31:16.837Z,34.70
2023-04-18T07:33:43.958Z,33.10
2023-04-18T07:36:11.218Z,32.08
2023-04-18T07:38:38.195Z,33.08
2023-04-18T07:41:05.345Z,32.78
2023-04-18T07:43:32.339Z,31.50
2023-04-18T07:45:59.426Z,31.83
2023-04-18T07:48:26.951Z,31.42
2023-04-18T07:50:54.511Z,31.80
2023-04-18T07:53:21.621Z,33.22
2023-04-18T07:55:48.686Z,32.53
2023-04-18T07:58:16.057Z,32.60
2023-04-18T08:00:44.789Z,32.33
2023-04-18T08:03:12.819Z,33.33
2023-04-18T08:05:41.341Z,31.27
2023-04-18T08:08:10.249Z,30.58
2023-04-18T08:10:38.038Z,30.27
2023-04-18T08:13:05.250Z,30.63
2023-04-18T08:15:32.710Z,30.35
2023-04-18T08:18:01.159Z,30.20
2023-04-18T08:20:28.252Z,29.10
2023-04-18T08:25:25.362Z,30.05
2023-04-18T08:27:52.373Z,28.40
2023-04-18T08:30:19.550Z,29.75
2023-04-18T08:32:46.606Z,29.65
2023-04-18T08:35:13.581Z,29.25
2023-04-18T08:37:40.515Z,29.20
2023-04-18T08:40:08.039Z,30.05
2023-04-18T08:42:36.964Z,29.98
2023-04-18T08:45:05.291Z,29.95
2023-04-18T08:47:32.431Z,30.27
2023-04-18T08:50:00.949Z,33.30
2023-04-18T08:52:30.888Z,28.75
2023-04-18T08:54:57.960Z,29.63
2023-04-18T08:57:27.149Z,29.95
2023-04-18T08:59:55.568Z,28.35
2023-04-18T09:02:35.179Z,29.80
2023-04-18T09:05:28.469Z,28.77
2023-04-18T09:07:56.897Z,28.92
2023-04-18T09:10:35.158Z,29.55
2023-04-18T09:13:04.480Z,29.35
2023-04-18T09:15:31.964Z,28.40
2023-04-18T09:18:02.879Z,29.30
2023-04-18T09:20:38.587Z,27.52
2023-04-18T09:23:14.908Z,27.58
2023-04-18T09:25:44.392Z,26.70
2023-04-18T09:28:31.997Z,27.90
2023-04-18T09:31:12.124Z,27.38
2023-04-18T09:33:44.943Z,28.08
2023-04-18T09:36:20.909Z,27.90
2023-04-18T09:38:49.356Z,27.95
2023-04-18T09:41:19.898Z,27.23
2023-04-18T09:43:48.735Z,26.23
2023-04-18T09:46:17.733Z,25.65
2023-04-18T09:48:44.910Z,25.92
2023-04-18T09:51:15.905Z,25.50
2023-04-18T09:53:48.052Z,24.75
2023-04-18T09:56:25.397Z,24.13
2023-04-18T09:58:57.258Z,26.27
2023-04-18T10:01:28.690Z,24.30
2023-04-18T10:03:57.518Z,24.10
2023-04-18T10:06:27.451Z,24.80
2023-04-18T10:08:55.276Z,23.88
2023-04-18T10:11:24.340Z,23.48
2023-04-18T10:13:54.818Z,23.40
2023-04-18T10:16:22.117Z,24.90
2023-04-18T10:18:51.185Z,23.75
2023-04-18T10:21:18.313Z,22.88
2023-04-18T10:23:48.874Z,22.58
2023-04-18T10:26:16.170Z,21.85
2023-04-18T10:28:59.049Z,22.02
2023-04-18T10:31:28.232Z,21.30
2023-04-18T10:34:05.344Z,21.13
2023-04-18T10:36:33.374Z,21.15
2023-04-18T10:39:21.309Z,20.73
2023-04-18T10:41:51.846Z,21.50
2023-04-18T10:44:23.188Z,19.83
2023-04-18T10:46:53.557Z,19.55
2023-04-18T10:49:24.479Z,19.70
2023-04-18T10:51:54.712Z,20.20
2023-04-18T10:54:56.978Z,20.38
2023-04-18T10:57:25.443Z,20.05
2023-04-18T10:59:53.034Z,20.35
2023-04-18T11:02:26.422Z,19.98
2023-04-18T11:04:55.627Z,20.20
2023-04-18T11:07:37.753Z,20.27
2023-04-18T11:10:06.659Z,19.88
2023-04-18T11:12:36.518Z,20.25
2023-04-18T11:15:10.740Z,19.88
2023-04-18T11:20:12.830Z,20.10
2023-04-18T11:22:51.471Z,20.45
2023-04-18T11:25:22.255Z,20.08
2023-04-18T11:27:55.119Z,20.50
2023-04-18T11:30:22.588Z,20.98
2023-04-18T11:32:49.708Z,20.92
2023-04-18T11:35:16.780Z,20.80
2023-04-18T11:37:50.133Z,20.20
2023-04-18T11:40:17.184Z,20.80
2023-04-18T11:42:44.163Z,20.40
2023-04-18T11:45:16.001Z,21.70
2023-04-18T11:47:44.963Z,21.38
2023-04-18T11:50:13.576Z,21.27
2023-04-18T11:52:42.630Z,23.20
2023-04-18T11:55:18.607Z,23.27
2023-04-18T11:57:55.572Z,21.60
2023-04-18T12:00:39.523Z,22.17
2023-04-18T12:03:15.747Z,21.40
2023-04-18T12:05:43.193Z,20.40
2023-04-18T12:08:20.811Z,20.83
2023-04-18T12:10:53.625Z,20.60
2023-04-18T12:13:31.683Z,20.55
2023-04-18T12:16:01.842Z,21.58
2023-04-18T12:18:30.031Z,20.80
2023-04-18T12:20:58.738Z,21.30
2023-04-18T12:23:40.517Z,21.88
2023-04-18T12:26:18.375Z,20.90
2023-04-18T12:28:46.890Z,20.90
2023-04-18T12:31:13.871Z,20.85
2023-04-18T12:33:40.916Z,21.40
2023-04-18T12:36:11.239Z,21.85
2023-04-18T12:38:38.257Z,22.52
2023-04-18T12:41:06.418Z,22.55
2023-04-18T12:43:33.517Z,21.98
2023-04-18T12:46:00.645Z,22.27
2023-04-18T12:48:28.000Z,22.75
2023-04-18T12:50:55.037Z,21.52
2023-04-18T12:53:22.053Z,22.92
2023-04-18T12:55:49.052Z,22.60
2023-04-18T12:58:18.747Z,23.27
2023-04-18T13:00:46.365Z,22.05
2023-04-18T13:03:13.757Z,23.77
2023-04-18T13:05:41.323Z,22.35
2023-04-18T13:08:16.762Z,21.95
2023-04-18T13:10:46.307Z,22.92
2023-04-18T13:13:13.732Z,23.60
2023-04-18T13:15:41.327Z,23.23
2023-04-18T13:18:08.541Z,23.45
2023-04-18T13:20:36.660Z,23.73
2023-04-18T13:23:04.020Z,22.60
2023-04-18T13:25:31.439Z,23.27
2023-04-18T13:27:59.083Z,22.60
2023-04-18T13:30:26.296Z,22.88
2023-04-18T13:32:53.382Z,21.70
2023-04-18T13:35:20.508Z,21.52
2023-04-18T13:37:47.551Z,21.92
2023-04-18T13:40:14.982Z,22.73
2023-04-18T13:42:43.193Z,22.48
2023-04-18T13:45:10.756Z,22.05
2023-04-18T13:47:38.002Z,23.02
2023-04-18T13:50:05.746Z,22.15
2023-04-18T13:52:33.045Z,22.25
2023-04-18T13:55:00.136Z,22.40
2023-04-18T13:57:28.504Z,22.83
2023-04-18T13:59:55.730Z,21.95
2023-04-18T14:02:23.060Z,22.55
2023-04-18T14:04:50.437Z,21.55
2023-04-18T14:07:17.818Z,22.00
2023-04-18T14:09:44.816Z,22.20
2023-04-18T14:12:11.849Z,21.45
2023-04-18T14:14:38.786Z,21.63
2023-04-18T14:17:06.627Z,21.75
2023-04-18T14:19:34.964Z,21.42
2023-04-18T14:22:01.980Z,21.42
2023-04-18T14:24:28.990Z,20.70
2023-04-18T14:26:56.010Z,21.20
2023-04-18T14:29:22.978Z,21.15
2023-04-18T14:31:50.101Z,21.60
2023-04-18T14:34:17.064Z,21.50
2023-04-18T14:36:43.989Z,21.52
2023-04-18T14:39:11.186Z,21.88
2023-04-18T14:41:38.509Z,22.63
2023-04-18T14:44:05.901Z,22.83
2023-04-18T14:46:32.940Z,23.45
2023-04-18T14:49:00.521Z,23.45
2023-04-18T14:51:27.804Z,23.80
2023-04-18T14:53:55.631Z,23.20
2023-04-18T14:56:24.408Z,23.73
2023-04-18T14:58:51.416Z,23.42
2023-04-18T15:01:18.649Z,23.33
2023-04-18T15:03:45.981Z,24.55
2023-04-18T15:06:13.327Z,23.85
2023-04-18T15:08:40.760Z,23.65
2023-04-18T15:11:08.738Z,24.48
2023-04-18T15:13:36.106Z,24.08
2023-04-18T15:16:03.423Z,24.95
2023-04-18T15:18:30.419Z,24.08
2023-04-18T15:21:00.455Z,24.70
2023-04-18T15:23:27.963Z,24.33
2023-04-18T15:25:55.383Z,25.02
2023-04-18T15:28:22.430Z,24.60
2023-04-18T15:30:49.420Z,26.00
2023-04-18T15:33:18.025Z,25.75
2023-04-18T15:35:45.930Z,24.98
2023-04-18T15:38:13.131Z,25.73
2023-04-18T15:40:40.164Z,28.60
2023-04-18T15:43:07.364Z,25.75
2023-04-18T15:45:34.378Z,25.77
2023-04-18T15:48:02.230Z,24.85
2023-04-18T15:50:30.766Z,24.38
2023-04-18T15:52:59.139Z,24.98
2023-04-18T15:55:26.219Z,24.58
2023-04-18T15:57:53.203Z,25.30
2023-04-18T16:00:20.930Z,26.08
2023-04-18T16:02:48.166Z,24.92
2023-04-18T16:05:15.603Z,25.27
2023-04-18T16:07:43.280Z,25.98
2023-04-18T16:10:11.328Z,24.42
2023-04-18T16:12:39.194Z,24.27
2023-04-18T16:15:08.284Z,23.67
2023-04-18T16:17:36.293Z,24.67
2023-04-18T16:20:03.890Z,24.42
2023-04-18T16:22:31.130Z,23.65
2023-04-18T16:24:58.071Z,23.80
2023-04-18T16:27:25.148Z,24.20
2023-04-18T16:29:53.883Z,23.90
2023-04-18T16:32:21.338Z,24.20
2023-04-18T16:34:48.567Z,23.75
2023-04-18T16:37:15.920Z,24.15
2023-04-18T16:39:42.990Z,23.55
2023-04-18T16:42:10.248Z,22.95
2023-04-18T16:44:37.394Z,24.10
2023-04-18T16:47:06.133Z,23.75
2023-04-18T16:49:33.136Z,23.77
2023-04-18T16:52:00.197Z,24.55
2023-04-18T16:54:27.133Z,23.70
2023-04-18T16:56:54.121Z,23.83
2023-04-18T16:59:21.075Z,25.20
2023-04-18T17:01:48.134Z,25.70
2023-04-18T17:04:15.965Z,26.20
2023-04-18T17:06:43.880Z,24.75
2023-04-18T17:09:13.803Z,25.30
2023-04-18T17:11:41.741Z,24.08
2023-04-18T17:14:09.148Z,23.90
2023-04-18T17:16:40.525Z,23.95
2023-04-18T17:19:07.932Z,23.65
2023-04-18T17:21:35.666Z,23.92
2023-04-18T17:24:04.029Z,24.02
2023-04-18T17:26:31.435Z,24.95
2023-04-18T17:28:59.166Z,23.30
2023-04-18T17:31:26.207Z,23.63
2023-04-18T17:33:54.627Z,22.98
2023-04-18T17:36:21.718Z,24.02
2023-04-18T17:38:51.626Z,22.83
2023-04-18T17:41:21.224Z,23.23
2023-04-18T17:43:50.914Z,23.58
2023-04-18T17:46:18.106Z,23.63
2023-04-18T17:48:45.438Z,23.42
2023-04-18T17:51:12.527Z,23.33
2023-04-18T17:53:39.509Z,22.75
2023-04-18T17:56:06.581Z,23.08
2023-04-18T17:58:33.710Z,22.65
2023-04-18T18:01:00.794Z,23.05
2023-04-18T18:03:27.967Z,23.08
2023-04-18T18:05:55.188Z,22.63
2023-04-18T18:08:22.772Z,22.25
2023-04-18T18:10:50.118Z,22.63
2023-04-18T18:13:17.213Z,23.15
2023-04-18T18:15:44.200Z,23.13
2023-04-18T18:18:11.560Z,22.50
2023-04-18T18:20:40.958Z,22.23
2023-04-18T18:23:09.017Z,22.08
2023-04-18T18:25:37.683Z,22.17
2023-04-18T18:28:04.808Z,22.23
2023-04-18T18:30:31.853Z,22.40
2023-04-18T18:32:59.172Z,21.67
2023-04-18T18:35:26.278Z,21.98
2023-04-18T18:37:53.235Z,21.73
2023-04-18T18:40:20.514Z,21.23
2023-04-18T18:42:51.233Z,21.90
2023-04-18T18:45:19.773Z,20.92
2023-04-18T18:47:47.298Z,21.52
2023-04-18T18:50:14.389Z,22.55
2023-04-18T18:52:43.163Z,21.83
2023-04-18T18:55:11.433Z,22.33
2023-04-18T18:57:38.453Z,22.10
2023-04-18T19:00:11.208Z,21.77
2023-04-18T19:02:39.557Z,21.67
2023-04-18T19:05:07.349Z,22.13
2023-04-18T19:07:34.267Z,22.13
2023-04-18T19:10:01.923Z,21.35
2023-04-18T19:12:29.428Z,22.25
2023-04-18T19:14:56.570Z,22.52
2023-04-18T19:17:24.879Z,21.85
2023-04-18T19:19:53.013Z,22.15
2023-04-18T19:22:20.049Z,22.35
2023-04-18T19:24:47.085Z,22.50
2023-04-18T19:27:14.221Z,23.05
2023-04-18T19:29:41.449Z,22.13
2023-04-18T19:32:08.448Z,22.70
2023-04-18T19:34:35.409Z,24.02
2023-04-18T19:37:02.579Z,23.05
2023-04-18T19:39:30.523Z,26.83
2023-04-18T19:41:57.494Z,22.45
2023-04-18T19:44:24.523Z,22.38
2023-04-18T19:46:51.557Z,22.08
2023-04-18T19:49:18.541Z,22.13
2023-04-18T19:51:45.724Z,22.73
2023-04-18T19:54:13.363Z,21.67
2023-04-18T19:56:40.422Z,21.60
2023-04-18T19:59:07.414Z,21.52
2023-04-18T20:01:34.443Z,21.35
2023-04-18T20:04:01.715Z,21.98
2023-04-18T20:06:28.941Z,21.48
2023-04-18T20:08:55.978Z,21.50
2023-04-18T20:11:23.165Z,21.58
2023-04-18T20:13:52.284Z,22.13
2023-04-18T20:16:19.333Z,22.63
2023-04-18T20:18:47.515Z,22.92
2023-04-18T20:21:14.812Z,22.60
2023-04-18T20:23:42.834Z,22.73
2023-04-18T20:26:09.883Z,21.65
2023-04-18T20:28:37.962Z,21.90
2023-04-18T20:31:05.130Z,21.30
2023-04-18T20:33:32.990Z,22.63
2023-04-18T20:36:00.087Z,22.13
2023-04-18T20:38:29.706Z,22.35
2023-04-18T20:40:58.955Z,22.13
2023-04-18T20:43:26.918Z,21.95
2023-04-18T20:45:54.590Z,21.80
2023-04-18T20:48:21.703Z,21.65
2023-04-18T20:50:51.841Z,22.33
2023-04-18T20:53:25.228Z,22.10
2023-04-18T20:55:52.211Z,21.60
2023-04-18T20:58:19.195Z,22.65
2023-04-18T21:00:46.441Z,23.33
2023-04-18T21:03:14.862Z,21.58
2023-04-18T21:05:44.045Z,23.00
2023-04-18T21:08:11.533Z,22.10
2023-04-18T21:10:38.659Z,21.58
2023-04-18T21:13:05.652Z,21.85
2023-04-18T21:15:32.793Z,21.85
2023-04-18T21:17:59.925Z,22.13
2023-04-18T21:20:27.036Z,22.75
2023-04-18T21:22:54.057Z,22.48
2023-04-18T21:25:21.418Z,21.75
2023-04-18T21:27:50.667Z,24.02
2023-04-18T21:30:17.987Z,23.27
2023-04-18T21:32:46.156Z,22.45
2023-04-18T21:35:13.366Z,23.38
2023-04-18T21:37:40.379Z,22.75
2023-04-18T21:40:08.136Z,22.15
2023-04-18T21:42:35.806Z,23.00
2023-04-18T21:45:03.389Z,22.90
2023-04-18T21:47:31.925Z,22.45
2023-04-18T21:49:58.952Z,23.30
2023-04-18T21:52:25.977Z,23.27
2023-04-18T21:54:52.983Z,23.05
2023-04-18T21:57:19.928Z,22.88
2023-04-18T21:59:46.924Z,22.67
2023-04-18T22:02:13.929Z,22.90
2023-04-18T22:04:42.921Z,22.50
2023-04-18T22:07:11.494Z,22.95
2023-04-18T22:09:38.611Z,23.08
2023-04-18T22:12:05.839Z,22.65
2023-04-18T22:14:32.846Z,23.83
2023-04-18T22:17:01.866Z,23.42
2023-04-18T22:19:29.583Z,24.38
2023-04-18T22:21:56.905Z,24.00
2023-04-18T22:24:25.996Z,23.85
2023-04-18T22:26:53.695Z,24.35
2023-04-18T22:29:20.797Z,24.33
2023-04-18T22:31:47.771Z,24.50
2023-04-18T22:34:15.023Z,25.25
2023-04-18T22:36:42.889Z,24.67
2023-04-18T22:39:09.855Z,25.17
2023-04-18T22:41:36.897Z,24.92
2023-04-18T22:44:04.741Z,25.13
2023-04-18T22:46:33.012Z,25.25
2023-04-18T22:49:00.733Z,24.50
2023-04-18T22:51:28.755Z,24.85
2023-04-18T22:53:56.417Z,24.38
2023-04-18T22:56:23.516Z,23.98
2023-04-18T22:58:50.630Z,24.17
2023-04-18T23:01:17.661Z,25.00
2023-04-18T23:03:44.939Z,24.42
2023-04-18T23:06:12.074Z,24.75
2023-04-18T23:08:39.012Z,24.90
2023-04-18T23:11:06.079Z,24.95
2023-04-18T23:13:33.044Z,25.00
2023-04-18T23:16:00.060Z,25.13
2023-04-18T23:18:30.164Z,25.10
2023-04-18T23:20:57.145Z,25.17
2023-04-18T23:23:24.172Z,25.88
2023-04-18T23:25:51.152Z,26.08
2023-04-18T23:28:18.624Z,25.52
2023-04-18T23:30:45.609Z,25.45
2023-04-18T23:33:12.628Z,25.40
2023-04-18T23:35:39.586Z,25.73
2023-04-18T23:38:06.593Z,25.20
2023-04-18T23:40:33.529Z,25.83
2023-04-18T23:43:01.505Z,25.38
2023-04-18T23:45:31.157Z,25.77
2023-04-18T23:47:58.153Z,27.35
2023-04-18T23:50:25.113Z,25.85
2023-04-18T23:52:52.102Z,26.77
2023-04-18T23:55:19.011Z,26.65
2023-04-18T23:57:45.951Z,26.48
